This is the latest recevied weather packets stored in our database for station/object OE3CJB-13. If no packets are shown the sender has not sent any weather packets the latest 10 day(s).
| Time | Temp. | Humidity | Pressure | Rain* | Wind** | Luminosity | Snow |
|---|---|---|---|---|---|---|---|
| 1787564728 | 21.11° C | 39% | 1185.3 hPa | 0 mm | - | - | - |
| 1787563816 | 20.56° C | 41% | 1185.5 hPa | 0 mm | - | - | - |
| 1787562952 | 20.56° C | 42% | 1185.6 hPa | 0 mm | - | - | - |
| 1787562068 | 20.56° C | 42% | 1185 hPa | 0 mm | - | - | - |
| 1787561165 | 20° C | 42% | 1184.9 hPa | 0 mm | - | - | - |
| 1787560216 | 19.44° C | 45% | 1185 hPa | 0 mm | - | - | - |
| 1787559352 | 18.89° C | 48% | 1183.5 hPa | 0 mm | - | - | - |
| 1787558442 | 17.78° C | 50% | 1182.7 hPa | 0 mm | - | - | - |
| 1787557528 | 17.22° C | 51% | 1182.8 hPa | 0 mm | - | - | - |
| 1787556616 | 17.22° C | 52% | 1182 hPa | 0 mm | - | - | - |
| 1787555752 | 16.67° C | 54% | 1182 hPa | 0 mm | - | - | - |
| 1787554842 | 16.67° C | 56% | 1181.3 hPa | 0 mm | - | - | - |
| 1787553927 | 16.11° C | 60% | 1180.5 hPa | 0 mm | - | - | - |
| 1787553015 | 15.56° C | 68% | 1179 hPa | 0 mm | - | - | - |
| 1787552157 | 15° C | 74% | 1179.1 hPa | 0 mm | - | - | - |
| 1787551242 | 14.44° C | 79% | 1179.1 hPa | 0 mm | - | - | - |
| 1787550327 | 13.89° C | 81% | 1179 hPa | 0 mm | - | - | - |
| 1787549465 | 13.89° C | 82% | 1179.6 hPa | 0 mm | - | - | - |
| 1787548566 | 13.33° C | 83% | 1179.7 hPa | 0 mm | - | - | - |
| 1787547644 | 13.33° C | 83% | 1180.3 hPa | 0 mm | - | - | - |
| 1787546728 | 12.78° C | 82% | 1181.1 hPa | 0 mm | - | - | - |
| 1787545817 | 12.78° C | 82% | 1181 hPa | 0 mm | - | - | - |
| 1787544952 | 12.78° C | 82% | 1180.9 hPa | 0 mm | - | - | - |
| 1787544043 | 12.78° C | 81% | 1182.5 hPa | 0 mm | - | - | - |
| 1787543128 | 12.78° C | 81% | 1182.3 hPa | 0 mm | - | - | - |
* Rain latest hour (hover to see other rain measurements)
** Current wind speed in m/s (hover to see current wind gust speed)